Time;durP1;ratioP1;P1;durP2;ratioP2;P2;SDS_P1;SDS_P2;PMS_P1;PMS_P2;Temp;Humidity;BMP_temperature;BMP_pressure;BME280_temperature;BME280_humidity;BME280_pressure;Samples;Min_cycle;Max_cycle;Signal;HPM_P1;HPM_P2
2023/04/25 00:00:29;;;;;;;12.10;10.70;;;;;;;12.82;99.56;99272.92;1446462;89;21502;-81
2023/04/25 00:02:59;;;;;;;12.67;10.97;;;;;;;12.83;99.03;99264.78;1462034;89;21650;-81
2023/04/25 00:05:27;;;;;;;14.23;11.48;;;;;;;12.84;98.75;99266.41;1454441;89;22368;-80
2023/04/25 00:07:53;;;;;;;12.33;10.10;;;;;;;12.86;98.72;99261.74;1448214;89;21694;-81
2023/04/25 00:10:20;;;;;;;10.43;9.17;;;;;;;12.88;98.81;99262.34;1459593;89;21569;-81
2023/04/25 00:12:47;;;;;;;12.17;10.53;;;;;;;12.91;98.49;99255.84;1453710;89;21539;-81
2023/04/25 00:15:15;;;;;;;18.63;11.70;;;;;;;12.93;98.27;99258.31;1454356;89;21487;-81
2023/04/25 00:17:42;;;;;;;17.33;11.87;;;;;;;12.92;98.10;99257.50;1450517;89;21653;-82
2023/04/25 00:20:10;;;;;;;15.80;11.03;;;;;;;12.91;98.27;99255.02;1453896;89;21667;-82
2023/04/25 00:22:37;;;;;;;13.07;10.97;;;;;;;12.88;98.49;99256.22;1438385;89;21650;-81
2023/04/25 00:25:07;;;;;;;13.27;10.77;;;;;;;12.87;98.37;99258.58;1454438;89;21540;-82
2023/04/25 00:27:33;;;;;;;9.83;8.83;;;;;;;12.87;98.90;99259.91;1457171;89;21488;-82
2023/04/25 00:30:00;;;;;;;12.73;10.27;;;;;;;12.86;98.54;99256.43;1460379;89;22962;-82
2023/04/25 00:32:26;;;;;;;14.93;10.57;;;;;;;12.87;98.58;99251.94;1457459;89;21653;-81
2023/04/25 00:34:53;;;;;;;11.37;10.17;;;;;;;12.83;99.61;99248.00;1434469;89;21621;-80
2023/04/25 00:37:19;;;;;;;12.40;10.30;;;;;;;12.82;99.10;99245.04;1447672;89;22441;-82
2023/04/25 00:39:45;;;;;;;14.30;10.63;;;;;;;12.80;98.75;99239.94;1428739;89;21509;-80
2023/04/25 00:42:12;;;;;;;13.60;10.67;;;;;;;12.77;98.86;99237.63;1458810;89;21546;-81
2023/04/25 00:44:39;;;;;;;15.63;10.80;;;;;;;12.75;98.93;99241.52;1453732;89;22913;-83
2023/04/25 00:47:06;;;;;;;11.07;9.97;;;;;;;12.73;99.53;99236.90;1439011;89;21639;-83
2023/04/25 00:49:33;;;;;;;12.50;9.90;;;;;;;12.72;99.56;99231.28;1452189;89;21413;-81
2023/04/25 00:51:59;;;;;;;11.23;10.00;;;;;;;12.68;100.00;99230.82;1451538;89;22381;-81
2023/04/25 00:54:26;;;;;;;10.87;9.63;;;;;;;12.65;100.00;99230.69;1441228;89;21553;-82
2023/04/25 00:56:53;;;;;;;11.33;10.07;;;;;;;12.65;100.00;99234.67;1450971;89;21428;-82
2023/04/25 00:59:20;;;;;;;13.13;10.33;;;;;;;12.64;100.00;99241.52;1457318;89;21494;-82
2023/04/25 01:01:46;;;;;;;11.53;10.23;;;;;;;12.64;100.00;99231.71;1442161;89;22634;-81
2023/04/25 01:04:13;;;;;;;13.27;9.80;;;;;;;12.65;100.00;99228.55;1455493;89;21443;-80
2023/04/25 01:06:40;;;;;;;13.80;10.67;;;;;;;12.65;100.00;99223.23;1455467;89;22448;-80
2023/04/25 01:09:07;;;;;;;11.90;10.57;;;;;;;12.63;100.00;99223.95;1471619;89;21716;-81
2023/04/25 01:11:33;;;;;;;12.07;10.83;;;;;;;12.62;100.00;99223.63;1443389;89;22508;-80
2023/04/25 01:14:01;;;;;;;12.30;11.00;;;;;;;12.61;100.00;99223.31;1461064;89;21465;-79
2023/04/25 01:16:28;;;;;;;14.87;11.83;;;;;;;12.59;100.00;99218.19;1460930;89;21561;-80
2023/04/25 01:18:55;;;;;;;14.97;11.77;;;;;;;12.59;100.00;99226.14;1452415;89;21420;-81
2023/04/25 01:21:21;;;;;;;13.43;10.07;;;;;;;12.59;100.00;99220.84;1453377;89;21687;-79
2023/04/25 01:23:48;;;;;;;15.60;10.63;;;;;;;12.58;100.00;99213.89;1452175;89;22396;-78
2023/04/25 01:26:15;;;;;;;11.17;9.37;;;;;;;12.58;100.00;99219.20;1458112;89;21517;-78
2023/04/25 01:28:41;;;;;;;14.27;11.47;;;;;;;12.58;100.00;99215.73;1453957;89;22440;-80
2023/04/25 01:31:07;;;;;;;14.73;9.33;;;;;;;12.58;100.00;99215.73;1450643;89;21480;-80
2023/04/25 01:33:34;;;;;;;11.93;10.63;;;;;;;12.56;100.00;99213.26;1446839;89;21420;-80
2023/04/25 01:36:00;;;;;;;12.43;11.10;;;;;;;12.54;100.00;99212.62;1458911;89;21413;-79
2023/04/25 01:38:26;;;;;;;12.33;10.97;;;;;;;12.52;100.00;99209.35;1462739;89;21471;-80
2023/04/25 01:40:54;;;;;;;14.73;11.27;;;;;;;12.49;100.00;99209.73;1439250;89;21568;-79
2023/04/25 01:43:21;;;;;;;13.17;11.17;;;;;;;12.46;100.00;99208.79;1446069;89;21686;-80
2023/04/25 01:45:49;;;;;;;11.73;10.53;;;;;;;12.44;100.00;99208.15;1457555;89;21554;-81
2023/04/25 01:48:16;;;;;;;11.70;9.33;;;;;;;12.43;100.00;99205.19;1462627;89;21495;-79
2023/04/25 01:50:43;;;;;;;10.13;9.13;;;;;;;12.42;100.00;99202.20;1465253;89;21569;-81
2023/04/25 01:53:12;;;;;;;13.27;10.20;;;;;;;12.44;100.00;99205.50;1455841;89;21398;-79
2023/04/25 01:55:38;;;;;;;12.43;10.37;;;;;;;12.45;100.00;99207.13;1458484;89;21487;-80
2023/04/25 01:58:09;;;;;;;10.70;9.27;;;;;;;12.45;100.00;99205.80;1454811;89;22411;-82
2023/04/25 02:00:32;;;;;;;10.80;9.70;;;;;;;12.46;100.00;99197.33;1435528;89;22484;-82
2023/04/25 02:02:59;;;;;;;12.10;10.27;;;;;;;12.46;100.00;99190.69;1442039;89;21472;-81
2023/04/25 02:05:25;;;;;;;11.50;9.70;;;;;;;12.47;100.00;99193.17;1461627;89;21487;-79
2023/04/25 02:07:51;;;;;;;12.47;11.17;;;;;;;12.49;100.00;99195.65;1437992;89;21473;-80
2023/04/25 02:10:17;;;;;;;14.07;10.00;;;;;;;12.48;100.00;99186.84;1460628;89;21950;-81
2023/04/25 02:12:43;;;;;;;15.00;10.57;;;;;;;12.48;100.00;99189.50;1432875;89;22358;-80
2023/04/25 02:15:10;;;;;;;11.80;10.60;;;;;;;12.46;100.00;99183.58;1455948;89;21634;-80
2023/04/25 02:17:37;;;;;;;11.90;10.70;;;;;;;12.44;100.00;99181.61;1454186;89;21620;-80
2023/04/25 02:20:05;;;;;;;14.13;10.50;;;;;;;12.40;100.00;99176.38;1458026;89;21618;-80
2023/04/25 02:22:31;;;;;;;11.87;10.63;;;;;;;12.34;100.00;99174.46;1462006;89;21508;-80
2023/04/25 02:24:58;;;;;;;12.30;10.43;;;;;;;12.33;100.00;99174.97;1460541;89;22508;-79
2023/04/25 02:27:24;;;;;;;11.90;9.43;;;;;;;12.33;100.00;99171.50;1459710;89;22877;-80
2023/04/25 02:29:52;;;;;;;12.40;9.83;;;;;;;12.34;100.00;99171.33;1463653;89;21571;-81
2023/04/25 02:32:18;;;;;;;11.60;9.53;;;;;;;12.36;100.00;99169.28;1458219;89;21480;-79
2023/04/25 02:34:44;;;;;;;12.10;9.60;;;;;;;12.39;100.00;99169.41;1456433;89;21524;-80
2023/04/25 02:37:11;;;;;;;11.40;9.77;;;;;;;12.39;100.00;99166.76;1439076;89;21473;-80
2023/04/25 02:39:37;;;;;;;12.43;9.17;;;;;;;12.39;100.00;99166.76;1461778;89;21658;-78
2023/04/25 02:42:03;;;;;;;11.60;9.20;;;;;;;12.38;100.00;99163.80;1458116;89;21436;-81
2023/04/25 02:44:29;;;;;;;13.20;8.70;;;;;;;12.38;100.00;99166.45;1451237;89;21650;-80
2023/04/25 02:46:56;;;;;;;12.60;10.13;;;;;;;12.39;100.00;99168.09;1454432;89;22415;-80
2023/04/25 02:49:22;;;;;;;11.57;10.37;;;;;;;12.39;100.00;99160.13;1451706;89;21451;-80
2023/04/25 02:51:48;;;;;;;13.97;11.63;;;;;;;12.40;100.00;99162.60;1454985;89;21502;-81
2023/04/25 02:54:15;;;;;;;12.80;9.90;;;;;;;12.40;100.00;99158.62;1452268;89;22389;-81
2023/04/25 02:56:41;;;;;;;11.80;10.53;;;;;;;12.37;100.00;99159.01;1462066;89;21501;-80
2023/04/25 02:59:07;;;;;;;11.33;10.13;;;;;;;12.33;100.00;99152.93;1456588;89;21539;-79
2023/04/25 03:01:33;;;;;;;11.10;9.90;;;;;;;12.30;100.00;99155.45;1445813;89;22471;-79
2023/04/25 03:03:59;;;;;;;10.77;9.37;;;;;;;12.31;100.00;99152.29;1418833;89;21442;-80
2023/04/25 03:06:25;;;;;;;11.23;9.70;;;;;;;12.30;100.00;99150.15;1439675;89;21450;-79
2023/04/25 03:08:51;;;;;;;12.50;9.97;;;;;;;12.30;100.00;99144.03;1449829;89;21613;-80
2023/04/25 03:11:20;;;;;;;11.13;9.50;;;;;;;12.31;100.00;99143.00;1451599;89;21628;-79
2023/04/25 03:13:46;;;;;;;14.43;10.60;;;;;;;12.32;100.00;99148.14;1454236;89;21628;-80
2023/04/25 03:16:12;;;;;;;13.27;10.80;;;;;;;12.33;100.00;99145.78;1452239;89;21643;-79
2023/04/25 03:18:38;;;;;;;12.60;10.17;;;;;;;12.35;100.00;99142.95;1452706;89;22582;-78
2023/04/25 03:21:04;;;;;;;11.43;10.30;;;;;;;12.34;100.00;99145.27;1455539;89;21679;-81
2023/04/25 03:23:31;;;;;;;13.07;10.43;;;;;;;12.37;100.00;99143.56;1457364;89;21435;-79
2023/04/25 03:25:57;;;;;;;13.67;10.60;;;;;;;12.38;100.00;99143.39;1451908;89;21457;-79
2023/04/25 03:28:23;;;;;;;12.63;10.27;;;;;;;12.38;100.00;99135.43;1420504;89;23078;-78
2023/04/25 03:30:49;;;;;;;13.97;11.80;;;;;;;12.40;100.00;99140.56;1459512;89;21993;-80
2023/04/25 03:33:15;;;;;;;12.90;11.50;;;;;;;12.38;100.00;99142.58;1458936;89;21436;-78
2023/04/25 03:35:42;;;;;;;13.47;12.07;;;;;;;12.38;100.00;99138.59;1436290;89;22917;-80
2023/04/25 03:38:08;;;;;;;14.90;12.27;;;;;;;12.36;100.00;99136.63;1452617;89;21711;-80
2023/04/25 03:40:34;;;;;;;13.50;12.10;;;;;;;12.35;100.00;99144.28;1453105;89;21443;-80
2023/04/25 03:43:01;;;;;;;12.90;11.60;;;;;;;12.33;100.00;99136.50;1430689;89;21991;-79
2023/04/25 03:45:27;;;;;;;13.17;11.57;;;;;;;12.31;100.00;99135.86;1458316;89;21608;-80
2023/04/25 03:47:53;;;;;;;14.30;11.20;;;;;;;12.31;100.00;99131.88;1454762;89;21655;-79
2023/04/25 03:50:19;;;;;;;15.60;12.03;;;;;;;12.31;100.00;99131.88;1456894;89;21473;-80
2023/04/25 03:52:45;;;;;;;13.27;10.80;;;;;;;12.30;100.00;99128.11;1453803;89;22170;-79
2023/04/25 03:55:12;;;;;;;13.60;10.83;;;;;;;12.31;100.00;99123.11;1451427;89;21510;-79
2023/04/25 03:57:38;;;;;;;15.20;11.60;;;;;;;12.32;100.00;99129.56;1451941;89;21745;-79
2023/04/25 04:00:06;;;;;;;13.77;10.70;;;;;;;12.33;100.00;99129.05;1459940;89;21479;-80
2023/04/25 04:02:34;;;;;;;13.07;11.63;;;;;;;12.36;100.00;99130.00;1458124;89;21687;-79
2023/04/25 04:05:01;;;;;;;14.47;11.67;;;;;;;12.36;100.00;99136.12;1430673;89;22397;-78
2023/04/25 04:07:27;;;;;;;13.40;10.57;;;;;;;12.37;100.00;99136.94;1451397;89;22957;-79
2023/04/25 04:09:53;;;;;;;12.53;11.10;;;;;;;12.37;100.00;99136.45;1455536;89;21465;-79
2023/04/25 04:12:19;;;;;;;13.83;11.60;;;;;;;12.40;100.00;99132.09;1437989;89;21472;-79
2023/04/25 04:14:46;;;;;;;15.37;12.50;;;;;;;12.43;100.00;99133.55;1450354;89;21657;-79
2023/04/25 04:17:12;;;;;;;16.07;12.87;;;;;;;12.45;100.00;99136.80;1454800;89;22412;-79
2023/04/25 04:19:38;;;;;;;16.30;13.47;;;;;;;12.46;100.00;99131.83;1457477;89;21494;-78
2023/04/25 04:22:04;;;;;;;16.87;13.63;;;;;;;12.49;100.00;99127.98;1435453;89;21665;-79
2023/04/25 04:24:30;;;;;;;15.97;13.37;;;;;;;12.52;100.00;99124.95;1454512;89;21643;-81
2023/04/25 04:26:56;;;;;;;13.57;12.17;;;;;;;12.58;100.00;99128.16;1454937;89;22058;-76
2023/04/25 04:29:23;;;;;;;14.17;11.83;;;;;;;12.61;100.00;99123.27;1454385;89;21612;-80
2023/04/25 04:31:50;;;;;;;25.27;14.07;;;;;;;12.67;100.00;99123.52;1450551;89;22062;-77
2023/04/25 04:34:19;;;;;;;16.77;12.70;;;;;;;12.73;100.00;99124.08;1455066;89;22509;-78
2023/04/25 04:36:46;;;;;;;15.23;12.40;;;;;;;12.78;100.00;99119.02;1454447;89;21646;-79
2023/04/25 04:39:13;;;;;;;14.27;12.50;;;;;;;12.82;100.00;99119.73;1459194;89;22405;-78
2023/04/25 04:41:40;;;;;;;13.33;11.87;;;;;;;12.86;100.00;99121.01;1455410;89;21539;-80
2023/04/25 04:44:07;;;;;;;15.67;12.30;;;;;;;12.93;100.00;99130.85;1451528;89;22331;-77
2023/04/25 04:46:37;;;;;;;17.17;12.07;;;;;;;12.97;100.00;99127.59;1455892;89;21495;-79
2023/04/25 04:49:02;;;;;;;15.97;12.80;;;;;;;12.98;100.00;99126.60;1460104;89;21509;-81
2023/04/25 04:51:29;;;;;;;16.83;12.27;;;;;;;12.98;100.00;99122.62;1456683;89;21642;-83
2023/04/25 04:53:58;;;;;;;17.27;11.90;;;;;;;12.97;100.00;99117.48;1457579;89;22300;-84
2023/04/25 04:56:25;;;;;;;14.43;12.57;;;;;;;12.98;100.00;99128.44;1454891;89;22412;-81
2023/04/25 04:58:52;;;;;;;17.43;12.00;;;;;;;12.98;100.00;99126.60;1455297;89;21675;-83
2023/04/25 05:01:18;;;;;;;13.27;11.83;;;;;;;13.00;100.00;99124.55;1456116;89;22279;-83
2023/04/25 05:03:44;;;;;;;13.07;11.60;;;;;;;13.04;100.00;99123.67;1456292;89;21480;-83
2023/04/25 05:06:10;;;;;;;15.20;11.83;;;;;;;13.09;100.00;99120.75;1452840;89;21591;-79
2023/04/25 05:08:37;;;;;;;13.53;11.40;;;;;;;13.16;100.00;99121.28;1455645;89;22316;-79
2023/04/25 05:11:03;;;;;;;15.10;12.03;;;;;;;13.21;100.00;99124.18;1451205;89;21472;-80
2023/04/25 05:13:30;;;;;;;13.67;12.27;;;;;;;13.27;100.00;99120.25;1450255;89;21870;-80
2023/04/25 05:15:56;;;;;;;14.77;11.50;;;;;;;13.32;100.00;99116.98;1456056;89;22397;-80
2023/04/25 05:18:22;;;;;;;14.90;13.17;;;;;;;13.36;100.00;99122.23;1453962;89;21509;-80
2023/04/25 05:20:48;;;;;;;14.23;12.83;;;;;;;13.39;100.00;99109.88;1451410;89;21613;-79
2023/04/25 05:23:15;;;;;;;13.20;11.80;;;;;;;13.45;100.00;99110.92;1458362;89;21532;-79
2023/04/25 05:25:41;;;;;;;15.47;12.07;;;;;;;13.49;100.00;99110.83;1459528;89;22700;-78
2023/04/25 05:28:07;;;;;;;12.37;11.10;;;;;;;13.52;100.00;99109.95;1455322;89;21450;-80
2023/04/25 05:30:34;;;;;;;14.23;12.10;;;;;;;13.53;100.00;99112.91;1455610;89;21435;-80
2023/04/25 05:33:01;;;;;;;13.40;11.63;;;;;;;13.54;100.00;99115.05;1457204;89;21568;-80
2023/04/25 05:35:27;;;;;;;12.40;10.30;;;;;;;13.56;100.00;99109.55;1452879;89;21627;-79
2023/04/25 05:37:54;;;;;;;13.50;11.07;;;;;;;13.58;100.00;99104.83;1457939;89;21480;-80
2023/04/25 05:40:20;;;;;;;13.10;10.10;;;;;;;13.58;100.00;99109.66;1458196;89;21531;-79
2023/04/25 05:42:46;;;;;;;12.83;10.53;;;;;;;13.57;100.00;99106.67;1457935;89;22077;-79
2023/04/25 05:45:12;;;;;;;13.17;10.37;;;;;;;13.57;100.00;99103.20;1458613;89;21635;-80
2023/04/25 05:47:39;;;;;;;12.60;10.90;;;;;;;13.61;100.00;99107.09;1456431;89;22457;-79
2023/04/25 05:50:08;;;;;;;12.47;11.07;;;;;;;13.66;100.00;99109.97;1460424;89;22056;-78
2023/04/25 05:52:34;;;;;;;11.03;9.90;;;;;;;13.74;100.00;99111.95;1457950;89;21339;-79
2023/04/25 05:55:01;;;;;;;11.90;9.40;;;;;;;13.81;100.00;99112.47;1442827;89;21421;-78
2023/04/25 05:57:27;;;;;;;10.70;9.60;;;;;;;13.88;100.00;99114.14;1455594;89;21626;-76
2023/04/25 05:59:54;;;;;;;17.70;10.50;;;;;;;13.93;100.00;99110.89;1458639;89;21598;-77
2023/04/25 06:02:21;;;;;;;13.77;9.93;;;;;;;13.97;100.00;99108.13;1454551;89;22492;-78
2023/04/25 06:04:50;;;;;;;12.07;10.87;;;;;;;14.03;100.00;99110.48;1458097;89;22040;-76
2023/04/25 06:07:18;;;;;;;12.90;11.10;;;;;;;14.09;100.00;99107.02;1455994;89;21493;-78
2023/04/25 06:09:44;;;;;;;16.00;10.60;;;;;;;14.12;100.00;99107.94;1367228;91;21722;-77
2023/04/25 06:12:11;;;;;;;11.70;10.07;;;;;;;14.14;100.00;99104.05;1382768;89;21444;-78
2023/04/25 06:14:37;;;;;;;11.80;10.47;;;;;;;14.20;99.86;99099.77;1383157;89;21339;-77
2023/04/25 06:17:09;;;;;;;17.00;11.20;;;;;;;14.28;99.68;99104.08;1529698;89;22315;-77
2023/04/25 06:19:35;;;;;;;11.33;10.23;;;;;;;14.33;99.90;99094.46;1444072;89;22368;-78
2023/04/25 06:22:02;;;;;;;10.93;9.83;;;;;;;14.42;98.96;99095.89;1538931;89;21377;-78
2023/04/25 06:24:28;;;;;;;12.30;11.00;;;;;;;14.53;98.75;99097.64;1382154;89;21528;-77
2023/04/25 06:26:55;;;;;;;13.23;11.20;;;;;;;14.64;98.39;99097.02;1382543;89;21444;-78
2023/04/25 06:29:21;;;;;;;15.10;12.07;;;;;;;14.71;97.86;99092.53;1388706;89;21517;-78
2023/04/25 06:31:47;;;;;;;17.43;15.30;;;;;;;14.77;97.81;99086.37;1382938;89;21429;-76
2023/04/25 06:34:13;;;;;;;13.80;12.40;;;;;;;14.86;97.78;99095.77;1383301;89;21457;-78
2023/04/25 06:36:41;;;;;;;19.03;11.53;;;;;;;14.83;96.80;99089.53;1383385;89;22216;-77
2023/04/25 06:39:08;;;;;;;14.70;11.03;;;;;;;14.85;96.27;99088.81;1381246;89;21428;-79
2023/04/25 06:41:35;;;;;;;11.53;10.03;;;;;;;14.88;96.27;99094.25;1387460;89;21399;-77
2023/04/25 06:44:01;;;;;;;12.70;10.47;;;;;;;14.90;95.50;99089.51;1388291;89;21584;-78
2023/04/25 06:46:28;;;;;;;17.40;11.83;;;;;;;14.94;95.02;99088.60;1538260;89;21385;-77
2023/04/25 06:48:54;;;;;;;13.17;11.33;;;;;;;15.02;94.84;99090.53;1381943;89;22361;-78
2023/04/25 06:51:20;;;;;;;12.63;11.27;;;;;;;15.14;95.26;99084.03;1382065;89;21437;-78
2023/04/25 06:53:46;;;;;;;12.30;10.90;;;;;;;15.20;94.71;99087.19;1382048;89;21599;-78
2023/04/25 06:56:12;;;;;;;12.20;11.00;;;;;;;15.26;94.34;99089.53;1381839;89;21407;-77
2023/04/25 06:58:39;;;;;;;11.87;9.83;;;;;;;15.34;94.01;99084.78;1382073;89;21429;-78
2023/04/25 07:01:05;;;;;;;15.50;11.60;;;;;;;15.33;92.78;99079.64;1381770;89;22294;-78
2023/04/25 07:03:31;;;;;;;11.23;9.70;;;;;;;15.40;92.88;99079.64;1382032;89;21377;-79
2023/04/25 07:05:57;;;;;;;15.57;11.90;;;;;;;15.44;92.09;99081.66;1381853;89;21362;-79
2023/04/25 07:08:23;;;;;;;12.93;10.23;;;;;;;15.48;91.94;99084.73;1382186;89;21362;-79
2023/04/25 07:10:50;;;;;;;13.13;10.93;;;;;;;15.44;90.99;99081.66;1381901;89;22287;-79
2023/04/25 07:13:16;;;;;;;10.43;9.37;;;;;;;15.43;90.89;99088.55;1449636;89;21547;-77
2023/04/25 07:15:43;;;;;;;13.00;10.03;;;;;;;15.43;91.61;99081.88;1452261;89;21413;-78
2023/04/25 07:18:10;;;;;;;14.67;9.47;;;;;;;15.48;91.42;99083.41;1362441;91;21384;-78
2023/04/25 07:20:36;;;;;;;11.47;10.03;;;;;;;15.51;91.21;99082.45;1535163;89;21385;-79
2023/04/25 07:23:02;;;;;;;12.07;10.87;;;;;;;15.54;90.53;99086.55;1382354;89;21392;-79
2023/04/25 07:25:30;;;;;;;12.20;10.53;;;;;;;15.58;90.90;99079.75;1382085;89;21377;-79
2023/04/25 07:27:56;;;;;;;14.63;11.30;;;;;;;15.65;91.11;99083.70;1379853;89;21414;-78
2023/04/25 07:30:23;;;;;;;13.50;10.47;;;;;;;15.72;90.55;99080.02;1381740;89;21421;-78
2023/04/25 07:32:50;;;;;;;11.20;9.37;;;;;;;15.76;89.96;99082.55;1408977;89;21644;-77
2023/04/25 07:35:17;;;;;;;13.20;9.00;;;;;;;15.77;89.00;99081.53;1453968;89;21628;-79
2023/04/25 07:37:45;;;;;;;12.77;9.30;;;;;;;15.81;88.27;99081.91;1432734;89;21569;-79
2023/04/25 07:40:11;;;;;;;10.47;9.37;;;;;;;15.86;87.70;99082.62;1455703;89;21450;-77
2023/04/25 07:42:38;;;;;;;13.20;10.47;;;;;;;15.91;87.54;99080.09;1452564;89;21488;-77
2023/04/25 07:45:05;;;;;;;12.70;9.83;;;;;;;15.99;86.96;99077.98;1451759;89;21545;-79
2023/04/25 07:47:31;;;;;;;12.27;10.53;;;;;;;16.06;86.76;99077.97;1437540;89;21609;-78
2023/04/25 07:49:58;;;;;;;10.40;9.40;;;;;;;16.10;86.01;99081.02;1450482;89;21465;-79
2023/04/25 07:52:24;;;;;;;10.43;8.97;;;;;;;16.15;86.47;99080.66;1451202;89;21664;-79
2023/04/25 07:54:51;;;;;;;10.13;7.93;;;;;;;16.17;85.31;99080.44;1453269;89;21598;-78
2023/04/25 07:57:18;;;;;;;10.07;8.80;;;;;;;16.13;84.18;99076.58;1449259;89;21510;-79
2023/04/25 07:59:44;;;;;;;15.47;9.13;;;;;;;16.16;85.03;99083.62;1457920;89;21516;-79
2023/04/25 08:02:10;;;;;;;11.67;10.03;;;;;;;16.18;84.06;99080.23;1452364;89;21435;-78
2023/04/25 08:04:36;;;;;;;11.60;8.97;;;;;;;16.21;84.26;99078.46;1437718;89;21465;-79
2023/04/25 08:07:03;;;;;;;11.40;10.20;;;;;;;16.32;83.96;99079.62;1449876;89;22905;-79
2023/04/25 08:09:33;;;;;;;11.60;10.40;;;;;;;16.33;81.60;99071.90;1435041;89;22514;-80
2023/04/25 08:11:57;;;;;;;11.00;9.90;;;;;;;16.37;81.40;99071.78;1454885;89;21516;-77
2023/04/25 08:14:23;;;;;;;14.70;11.00;;;;;;;16.45;81.37;99069.33;1453607;89;21465;-77
2023/04/25 08:16:49;;;;;;;14.37;11.70;;;;;;;16.54;81.06;99068.02;1453442;89;21464;-78
2023/04/25 08:19:16;;;;;;;12.67;10.60;;;;;;;16.53;79.57;99065.05;1438324;89;22374;-78
2023/04/25 08:21:42;;;;;;;14.77;11.90;;;;;;;16.49;80.05;99065.20;1451904;89;21696;-81
2023/04/25 08:24:08;;;;;;;15.17;10.50;;;;;;;16.47;79.60;99063.27;1452417;89;21577;-79
2023/04/25 08:26:37;;;;;;;11.87;10.67;;;;;;;16.41;80.06;99065.48;1450846;89;21428;-77
2023/04/25 08:29:03;;;;;;;15.47;12.23;;;;;;;16.44;79.19;99069.05;1386056;89;21703;-80
2023/04/25 08:31:29;;;;;;;13.97;12.40;;;;;;;16.37;78.90;99066.94;1381857;89;21429;-81
2023/04/25 08:33:55;;;;;;;13.33;11.87;;;;;;;16.20;79.08;99063.48;1382409;89;21340;-80
2023/04/25 08:36:22;;;;;;;13.47;12.07;;;;;;;15.98;79.08;99066.22;1381931;89;21310;-79
2023/04/25 08:38:49;;;;;;;20.87;13.33;;;;;;;15.80;79.90;99060.28;1380571;89;22461;-82
2023/04/25 08:41:16;;;;;;;13.23;11.87;;;;;;;15.65;80.77;99065.88;1388073;89;21526;-81
2023/04/25 08:43:45;;;;;;;14.07;11.77;;;;;;;15.50;81.88;99063.47;1449819;89;22287;-81
2023/04/25 08:46:12;;;;;;;16.33;12.17;;;;;;;15.35;83.00;99069.08;1454862;89;21509;-79
2023/04/25 08:48:42;;;;;;;16.07;12.33;;;;;;;15.23;83.54;99071.30;1455151;89;21525;-80
2023/04/25 08:51:13;;;;;;;15.00;13.13;;;;;;;15.10;84.92;99074.81;1455646;89;21472;-79
2023/04/25 08:53:42;;;;;;;16.20;14.40;;;;;;;14.98;85.69;99076.48;1453118;89;21501;-80
2023/04/25 08:56:12;;;;;;;17.77;14.73;;;;;;;14.80;87.25;99081.14;1453046;89;22331;-79
2023/04/25 08:58:39;;;;;;;20.17;14.90;;;;;;;14.58;89.19;99084.02;1434660;89;22773;-80
2023/04/25 09:01:06;;;;;;;13.80;12.50;;;;;;;14.44;89.05;99081.88;1454031;89;21495;-80
2023/04/25 09:03:33;;;;;;;16.67;13.90;;;;;;;14.37;89.43;99081.55;1434881;89;21510;-79
2023/04/25 09:06:00;;;;;;;14.93;13.27;;;;;;;14.30;90.20;99092.70;1536692;89;22303;-80
2023/04/25 09:08:26;;;;;;;20.37;13.53;;;;;;;14.21;90.48;99088.93;1458716;89;21480;-79
2023/04/25 09:10:52;;;;;;;17.37;13.93;;;;;;;14.15;91.62;99091.56;1456400;89;21606;-79
2023/04/25 09:13:28;;;;;;;15.80;14.10;;;;;;;14.10;92.95;99090.86;1457339;89;22559;-81
2023/04/25 09:15:57;;;;;;;18.90;15.03;;;;;;;14.08;92.89;99092.08;1432906;89;21495;-80
2023/04/25 09:18:34;;;;;;;18.10;15.33;;;;;;;14.07;93.83;99099.73;1378440;89;21362;-80
2023/04/25 09:21:12;;;;;;;17.03;15.17;;;;;;;14.02;95.89;99107.02;1379956;89;22221;-79
2023/04/25 09:23:45;;;;;;;21.13;16.07;;;;;;;13.98;94.95;99102.61;1379809;89;21569;-79
2023/04/25 09:26:18;;;;;;;19.33;17.43;;;;;;;13.92;96.21;99107.38;1485648;89;21532;-80
2023/04/25 09:28:47;;;;;;;21.17;15.17;;;;;;;13.85;97.32;99113.21;1481313;89;21515;-79
2023/04/25 09:31:25;;;;;;;21.47;16.03;;;;;;;13.78;97.32;99115.02;1454612;89;21616;-78
2023/04/25 09:34:00;;;;;;;4.57;3.77;;;;;;;13.75;98.66;99119.41;1451635;89;21642;-79
2023/04/25 09:36:27;;;;;;;3.60;2.37;;;;;;;13.33;97.84;99129.27;1453224;89;21465;-78
2023/04/25 09:38:55;;;;;;;4.03;2.93;;;;;;;12.96;97.77;99127.30;1451758;89;22555;-79
2023/04/25 09:41:25;;;;;;;7.73;3.43;;;;;;;12.56;99.33;99128.33;1457932;89;21479;-78
2023/04/25 09:43:51;;;;;;;5.00;3.22;;;;;;;12.36;100.00;99132.14;1379134;89;21591;-78
2023/04/25 09:46:20;;;;;;;5.53;2.70;;;;;;;12.02;100.00;99128.85;1454537;89;21517;-79
2023/04/25 09:48:50;;;;;;;3.83;2.20;;;;;;;11.80;100.00;99130.65;1458114;89;21678;-80
2023/04/25 09:51:16;;;;;;;6.30;1.87;;;;;;;11.60;100.00;99133.06;1455761;89;22590;-79
2023/04/25 09:53:50;;;;;;;2.50;1.20;;;;;;;11.40;100.00;99125.37;1457627;89;21464;-80
2023/04/25 09:56:16;;;;;;;1.77;1.00;;;;;;;11.23;100.00;99128.72;1451957;89;21450;-80
2023/04/25 09:58:42;;;;;;;2.97;1.53;;;;;;;11.18;100.00;99129.77;1456734;89;21627;-80
2023/04/25 10:01:11;;;;;;;6.23;1.47;;;;;;;11.23;100.00;99148.08;1455089;89;21473;-80
2023/04/25 10:03:42;;;;;;;3.83;1.40;;;;;;;11.27;100.00;99141.39;1385899;89;21529;-80
2023/04/25 10:06:15;;;;;;;2.53;1.57;;;;;;;11.28;100.00;99144.89;1539722;89;22199;-81
2023/04/25 10:08:43;;;;;;;3.00;1.10;;;;;;;11.16;100.00;99139.20;1388604;89;21399;-79
2023/04/25 10:11:09;;;;;;;3.27;1.20;;;;;;;11.09;100.00;99137.48;1381371;89;22228;-80
2023/04/25 10:13:36;;;;;;;4.83;0.90;;;;;;;11.01;100.00;99143.69;1382694;89;21363;-80
2023/04/25 10:16:04;;;;;;;1.83;0.93;;;;;;;10.87;100.00;99143.16;1367909;91;22343;-82
2023/04/25 10:18:32;;;;;;;1.17;0.80;;;;;;;10.46;100.00;99135.09;1380788;89;21376;-80
2023/04/25 10:21:03;;;;;;;1.40;1.00;;;;;;;10.36;100.00;99134.03;1381012;89;22236;-80
2023/04/25 10:23:31;;;;;;;7.53;1.75;;;;;;;10.41;100.00;99133.98;1521841;89;21281;-79
2023/04/25 10:25:58;;;;;;;2.63;1.27;;;;;;;10.36;100.00;99132.71;1380641;89;22357;-80
2023/04/25 10:28:25;;;;;;;1.57;0.80;;;;;;;10.31;100.00;99128.45;1382138;89;21362;-81
2023/04/25 10:31:03;;;;;;;6.37;1.10;;;;;;;10.33;100.00;99143.64;1368199;91;21311;-80
2023/04/25 10:33:37;;;;;;;1.77;0.90;;;;;;;10.40;100.00;99150.36;1539722;89;21414;-81
2023/04/25 10:36:17;;;;;;;0.80;0.77;;;;;;;10.36;100.00;99153.88;1459290;89;21525;-78
2023/04/25 10:38:45;;;;;;;10.13;1.50;;;;;;;10.24;100.00;99143.36;1442796;89;21584;-82
2023/04/25 10:41:13;;;;;;;1.37;1.00;;;;;;;10.22;100.00;99140.06;1424205;89;22052;-81
2023/04/25 10:43:43;;;;;;;2.53;0.90;;;;;;;10.20;100.00;99131.98;1459037;89;21428;-80
2023/04/25 10:46:25;;;;;;;2.17;1.10;;;;;;;10.07;100.00;99142.65;1384354;89;21576;-80
2023/04/25 10:48:54;;;;;;;0.70;0.70;;;;;;;9.97;100.00;99131.47;1383755;89;21554;-81
2023/04/25 10:51:27;;;;;;;1.60;0.90;;;;;;;9.82;100.00;99134.05;1378246;89;21577;-80
2023/04/25 10:54:05;;;;;;;5.30;1.00;;;;;;;9.86;100.00;99134.01;1378071;89;22295;-80
2023/04/25 10:56:40;;;;;;;1.33;1.00;;;;;;;9.72;100.00;99136.06;1538260;89;21311;-80
2023/04/25 10:59:15;;;;;;;3.90;1.23;;;;;;;9.79;100.00;99130.94;1501302;89;21428;-81
2023/04/25 11:01:52;;;;;;;3.07;1.30;;;;;;;9.91;100.00;99118.45;1452629;89;22046;-80
2023/04/25 11:04:31;;;;;;;1.87;1.23;;;;;;;9.74;100.00;99120.88;1423877;89;21605;-81
2023/04/25 11:07:35;;;;;;;3.00;1.83;;;;;;;9.78;100.00;99116.91;1455329;89;21465;-83
2023/04/25 11:10:04;;;;;;;9.37;1.13;;;;;;;9.82;100.00;99119.51;1457853;89;22426;-84
2023/04/25 11:12:32;;;;;;;2.47;1.60;;;;;;;9.76;100.00;99116.75;1453058;89;22595;-83
2023/04/25 11:15:08;;;;;;;5.43;1.70;;;;;;;9.83;100.00;99122.97;1456318;89;21510;-83
2023/04/25 11:17:35;;;;;;;2.90;1.43;;;;;;;9.83;100.00;99121.14;1434648;89;21642;-83